| time (UTC) | temp C | wind direction | speed KPH | gust KPH | rain 1hr cm | rain 24hr cm | rain mn cm | humidity % | barometer mb |
| 20260906010041 | 12 | 265 | 0.0 | 4.8 | 0.00 | 0.00 | 0.00 | 63 | 1019.6 |
| 20260906004526 | 11 | 325 | 0.0 | 0.0 | 0.00 | 0.00 | 0.00 | 66 | 1019.3 |
| 20260906003013 | 11 | 325 | 0.0 | 0.0 | 0.00 | 0.00 | 0.00 | 65 | 1019.1 |
| 20260906001510 | 12 | 325 | 0.0 | 0.0 | 0.00 | 0.00 | 0.00 | 63 | 1019.0 |
| 20260906000057 | 11 | 325 | 0.0 | 0.0 | 0.00 | 0.00 | 0.00 | 65 | 1019.1 |
| 20260905234542 | 11 | 325 | 0.0 | 0.0 | 0.00 | 0.00 | 0.00 | 67 | 1018.8 |
| 20260905233016 | 11 | 325 | 0.0 | 1.6 | 0.00 | 0.00 | 0.00 | 67 | 1018.8 |
| 20260905231506 | 11 | 325 | 0.0 | 1.6 | 0.00 | 0.00 | 0.00 | 68 | 1018.8 |
| 20260905230055 | 11 | 325 | 0.0 | 1.6 | 0.00 | 0.00 | 0.00 | 68 | 1018.7 |
| 20260905224550 | 12 | 325 | 0.0 | 3.2 | 0.00 | 0.00 | 0.00 | 66 | 1018.7 |
| 20260905223033 | 11 | 344 | 0.0 | 0.0 | 0.00 | 0.00 | 0.00 | 68 | 1018.7 |
| 20260905221522 | 12 | 344 | 0.0 | 1.6 | 0.00 | 0.00 | 0.00 | 68 | 1018.7 |
| 20260905220012 | 12 | 344 | 0.0 | 0.0 | 0.00 | 0.00 | 0.00 | 68 | 1018.7 |
| 20260905214601 | 12 | 344 | 0.0 | 0.0 | 0.00 | 0.00 | 0.00 | 70 | 1018.6 |
| 20260905213039 | 13 | 344 | 0.0 | 9.7 | 0.00 | 0.00 | 0.00 | 69 | 1018.6 |
| 20260905211528 | 13 | 354 | 0.0 | 4.8 | 0.00 | 0.00 | 0.00 | 69 | 1018.7 |
| 20260905210017 | 12 | 269 | 0.0 | 3.2 | 0.00 | 0.00 | 0.00 | 69 | 1018.3 |
| 20260905204544 | 13 | 269 | 0.0 | 4.8 | 0.00 | 0.00 | 0.00 | 69 | 1018.2 |
| 20260905203019 | 13 | 265 | 0.0 | 0.0 | 0.00 | 0.00 | 0.00 | 67 | 1018.2 |
| 20260905201511 | 13 | 265 | 0.0 | 0.0 | 0.00 | 0.00 | 0.00 | 67 | 1018.0 |
| 20260905200112 | 13 | 265 | 0.0 | 0.0 | 0.00 | 0.00 | 0.00 | 67 | 1017.9 |
| 20260905194602 | 15 | 265 | 0.0 | 0.0 | 0.00 | 0.00 | 0.00 | 65 | 1017.9 |
| 20260905193037 | 15 | 265 | 0.0 | 1.6 | 0.00 | 0.00 | 0.00 | 64 | 1018.1 |
| 20260905191527 | 15 | 265 | 0.0 | 4.8 | 0.00 | 0.00 | 0.00 | 65 | 1018.0 |
| 20260905190002 | 15 | 290 | 0.0 | 0.0 | 0.00 | 0.00 | 0.00 | 64 | 1017.7 |
| 20260905184612 | 15 | 290 | 0.0 | 0.0 | 0.00 | 0.00 | 0.00 | 63 | 1017.5 |
| 20260905183048 | 16 | 290 | 0.0 | 0.0 | 0.00 | 0.00 | 0.00 | 61 | 1017.3 |
| 20260905181540 | 16 | 290 | 0.0 | 8.0 | 0.00 | 0.00 | 0.00 | 60 | 1017.0 |
| 20260905180027 | 17 | 273 | 3.2 | 12.9 | 0.00 | 0.00 | 0.00 | 59 | 1016.9 |
| 20260905174512 | 17 | 281 | 4.8 | 16.1 | 0.00 | 0.00 | 0.00 | 59 | 1016.6 |
| 20260905173113 | 17 | 271 | 4.8 | 11.3 | 0.00 | 0.00 | 0.00 | 59 | 1016.3 |
| 20260905171549 | 17 | 254 | 8.0 | 12.9 | 0.00 | 0.00 | 0.00 | 58 | 1016.4 |
| 20260905170039 | 17 | 278 | 3.2 | 11.3 | 0.00 | 0.00 | 0.00 | 57 | 1016.2 |
| 20260905164527 | 17 | 272 | 4.8 | 8.0 | 0.00 | 0.00 | 0.00 | 57 | 1016.0 |
| 20260905163016 | 17 | 251 | 6.4 | 11.3 | 0.00 | 0.00 | 0.00 | 56 | 1016.1 |
| 20260905161506 | 18 | 264 | 3.2 | 8.0 | 0.00 | 0.00 | 0.00 | 54 | 1016.2 |
| 20260905160055 | 18 | 260 | 4.8 | 11.3 | 0.00 | 0.00 | 0.00 | 52 | 1016.2 |
| 20260905154549 | 19 | 247 | 3.2 | 9.7 | 0.00 | 0.00 | 0.00 | 48 | 1016.2 |
| 20260905153020 | 20 | 323 | 0.0 | 0.0 | 0.00 | 0.00 | 0.00 | 42 | 1016.0 |
| 20260905151510 | 21 | 323 | 0.0 | 3.2 | 0.00 | 0.00 | 0.00 | 41 | 1016.0 |
| 20260905144553 | 21 | 286 | 4.8 | 14.5 | 0.00 | 0.00 | 0.00 | 41 | 1016.1 |
| 20260905143039 | 21 | 64 | 0.0 | 3.2 | 0.00 | 0.00 | 0.00 | 39 | 1016.0 |
| 20260905141530 | 21 | 317 | 0.0 | 1.6 | 0.00 | 0.00 | 0.00 | 40 | 1016.2 |
| 20260905140017 | 21 | 236 | 0.0 | 8.0 | 0.00 | 0.00 | 0.00 | 40 | 1016.2 |
| 20260905134505 | 21 | 60 | 0.0 | 6.4 | 0.00 | 0.00 | 0.00 | 41 | 1016.2 |
| 20260905133057 | 21 | 329 | 1.6 | 11.3 | 0.00 | 0.00 | 0.00 | 39 | 1016.2 |
| 20260905131541 | 22 | 7 | 4.8 | 11.3 | 0.00 | 0.00 | 0.00 | 38 | 1016.2 |
| 20260905130025 | 21 | 323 | 1.6 | 12.9 | 0.00 | 0.00 | 0.00 | 41 | 1015.9 |
| 20260905124514 | 20 | 45 | 3.2 | 16.1 | 0.00 | 0.00 | 0.00 | 41 | 1016.0 |
| 20260905123003 | 21 | 303 | 0.0 | 14.5 | 0.00 | 0.00 | 0.00 | 40 | 1016.1 |
| 20260905121600 | 20 | 304 | 0.0 | 9.7 | 0.00 | 0.00 | 0.00 | 43 | 1016.4 |
| 20260905120047 | 20 | 60 | 1.6 | 8.0 | 0.00 | 0.00 | 0.00 | 44 | 1016.3 |
| 20260905114526 | 19 | 354 | 1.6 | 6.4 | 0.00 | 0.00 | 0.00 | 45 | 1016.2 |
| 20260905113008 | 20 | 1 | 0.0 | 8.0 | 0.00 | 0.00 | 0.00 | 43 | 1016.5 |
| 20260905111645 | 19 | 336 | 3.2 | 12.9 | 0.00 | 0.00 | 0.00 | 44 | 1016.6 |
| 20260905110050 | 18 | 316 | 0.0 | 4.8 | 0.00 | 0.00 | 0.00 | 44 | 1016.4 |
| 20260905104540 | 17 | 302 | 1.6 | 4.8 | 0.00 | 0.00 | 0.00 | 51 | 1016.5 |
| 20260905103030 | 17 | 321 | 0.0 | 3.2 | 0.00 | 0.00 | 0.00 | 53 | 1016.1 |
| 20260905101521 | 16 | 319 | 0.0 | 4.8 | 0.00 | 0.00 | 0.00 | 53 | 1016.3 |
| 20260905100010 | 17 | 322 | 1.6 | 8.0 | 0.00 | 0.00 | 0.00 | 52 | 1016.7 |
| 20260905094554 | 17 | 322 | 3.2 | 20.9 | 0.00 | 0.00 | 0.00 | 50 | 1016.7 |
| 20260905093045 | 18 | 343 | 8.0 | 19.3 | 0.00 | 0.00 | 0.00 | 50 | 1016.1 |
| 20260905091537 | 18 | 307 | 1.6 | 6.4 | 0.00 | 0.00 | 0.00 | 52 | 1015.8 |
| 20260905090024 | 18 | 34 | 1.6 | 11.3 | 0.00 | 0.00 | 0.00 | 50 | 1015.9 |
| 20260905084511 | 18 | 333 | 4.8 | 16.1 | 0.00 | 0.00 | 0.00 | 46 | 1015.8 |
| 20260905083048 | 19 | 347 | 3.2 | 14.5 | 0.00 | 0.00 | 0.00 | 45 | 1015.3 |
| 20260905081554 | 19 | 250 | 1.6 | 12.9 | 0.00 | 0.00 | 0.00 | 46 | 1015.1 |
| 20260905080053 | 19 | 245 | 3.2 | 19.3 | 0.00 | 0.00 | 0.00 | 46 | 1015.4 |
| 20260905074524 | 19 | 304 | 3.2 | 16.1 | 0.00 | 0.00 | 0.00 | 46 | 1015.4 |
| 20260905073014 | 19 | 350 | 3.2 | 19.3 | 0.00 | 0.00 | 0.00 | 47 | 1015.2 |
| 20260905071504 | 19 | 319 | 1.6 | 14.5 | 0.00 | 0.00 | 0.00 | 49 | 1014.9 |
| 20260905070056 | 19 | 317 | 3.2 | 11.3 | 0.00 | 0.00 | 0.00 | 47 | 1015.2 |
| 20260905064545 | 19 | 325 | 0.0 | 9.7 | 0.00 | 0.00 | 0.00 | 47 | 1014.6 |
| 20260905063026 | 20 | 307 | 1.6 | 8.0 | 0.00 | 0.00 | 0.00 | 46 | 1014.7 |
| 20260905061516 | 20 | 298 | 0.0 | 8.0 | 0.00 | 0.00 | 0.00 | 45 | 1014.5 |
| 20260905060005 | 21 | 320 | 0.0 | 4.8 | 0.00 | 0.00 | 0.00 | 49 | 1014.2 |
| 20260905054557 | 21 | 321 | 0.0 | 4.8 | 0.00 | 0.00 | 0.00 | 51 | 1014.1 |
| 20260905053033 | 20 | 322 | 0.0 | 4.8 | 0.00 | 0.00 | 0.00 | 52 | 1013.7 |
| 20260905051534 | 18 | 326 | 0.0 | 3.2 | 0.00 | 0.00 | 0.00 | 55 | 1013.7 |
| 20260905050016 | 17 | 325 | 0.0 | 6.4 | 0.00 | 0.00 | 0.00 | 57 | 1013.6 |
| 20260905044504 | 17 | 330 | 0.0 | 3.2 | 0.00 | 0.00 | 0.00 | 58 | 1013.6 |
| 20260905043059 | 16 | 271 | 0.0 | 4.8 | 0.00 | 0.00 | 0.00 | 60 | 1013.8 |
| 20260905041546 | 16 | 271 | 0.0 | 11.3 | 0.00 | 0.00 | 0.00 | 60 | 1014.0 |
| 20260905040041 | 17 | 346 | 0.0 | 6.4 | 0.00 | 0.00 | 0.00 | 58 | 1014.0 |
| 20260905034528 | 17 | 277 | 1.6 | 8.0 | 0.00 | 0.00 | 0.00 | 56 | 1013.4 |
| 20260905033035 | 18 | 304 | 0.0 | 6.4 | 0.00 | 0.00 | 0.00 | 54 | 1013.0 |
| 20260905031505 | 18 | 304 | 0.0 | 11.3 | 0.00 | 0.00 | 0.00 | 54 | 1012.6 |
| 20260905030101 | 18 | 355 | 1.6 | 17.7 | 0.00 | 0.00 | 0.00 | 54 | 1012.1 |
| 20260905024546 | 17 | 82 | 4.8 | 14.5 | 0.00 | 0.00 | 0.00 | 56 | 1012.1 |
| 20260905023043 | 17 | 320 | 0.0 | 4.8 | 0.00 | 0.00 | 0.00 | 56 | 1012.2 |
| 20260905021524 | 17 | 338 | 0.0 | 4.8 | 0.00 | 0.00 | 0.00 | 55 | 1012.3 |
| 20260905020016 | 17 | 356 | 0.0 | 4.8 | 0.00 | 0.00 | 0.00 | 56 | 1012.4 |
| 20260905014502 | 17 | 25 | 0.0 | 4.8 | 0.00 | 0.00 | 0.00 | 56 | 1012.1 |
| 20260905013059 | 18 | 14 | 0.0 | 14.5 | 0.00 | 0.00 | 0.00 | 53 | 1012.3 |
| 20260905011547 | 18 | 271 | 4.8 | 14.5 | 0.00 | 0.00 | 0.00 | 55 | 1012.2 |